Time;durP1;ratioP1;P1;durP2;ratioP2;P2;SDS_P1;SDS_P2;PMS_P1;PMS_P2;Temp;Humidity;BMP_temperature;BMP_pressure;BME280_temperature;BME280_humidity;BME280_pressure;Samples;Min_cycle;Max_cycle;Signal;HPM_P1;HPM_P2
2023/12/03 00:02:10;;;;;;;60.90;38.95;;;;;;;-0.49;100.00;160446.56;5052527;28;20040;-59
2023/12/03 00:04:36;;;;;;;62.30;37.97;;;;;;;-0.48;100.00;160449.22;5053749;28;20108;-58
2023/12/03 00:07:02;;;;;;;73.22;39.72;;;;;;;-0.45;100.00;160457.28;5052249;28;20043;-58
2023/12/03 00:09:27;;;;;;;80.22;42.55;;;;;;;-0.39;100.00;160473.34;5056445;28;20024;-58
2023/12/03 00:11:53;;;;;;;69.70;41.03;;;;;;;-0.36;100.00;160481.41;5071845;28;20049;-59
2023/12/03 00:14:18;;;;;;;68.97;40.83;;;;;;;-0.33;100.00;160489.41;5073561;28;20017;-58
2023/12/03 00:16:43;;;;;;;68.05;40.17;;;;;;;-0.28;100.00;160500.16;5072315;28;20514;-59
2023/12/03 00:19:09;;;;;;;69.80;41.25;;;;;;;-0.23;100.00;160514.91;5069090;28;20025;-58
2023/12/03 00:21:34;;;;;;;78.47;41.83;;;;;;;-0.22;100.00;160517.53;5052187;28;20523;-59
2023/12/03 00:24:00;;;;;;;68.80;37.47;;;;;;;-0.22;100.00;160517.53;5054994;28;20050;-59
2023/12/03 00:26:26;;;;;;;74.25;42.88;;;;;;;-0.17;100.00;160529.59;5071607;28;20414;-58
2023/12/03 00:28:51;;;;;;;62.00;39.75;;;;;;;-0.16;100.00;160532.28;5073833;28;20032;-58
2023/12/03 00:31:17;;;;;;;65.97;40.15;;;;;;;-0.12;100.00;160543.03;5071688;28;20040;-58
2023/12/03 00:33:42;;;;;;;79.75;43.80;;;;;;;-0.11;100.00;160545.69;5053271;28;20033;-58
2023/12/03 00:36:08;;;;;;;69.97;41.42;;;;;;;-0.12;100.00;160543.03;5051778;28;20053;-58
2023/12/03 00:38:33;;;;;;;68.90;38.80;;;;;;;-0.16;100.00;160532.28;5065123;28;20044;-58
2023/12/03 00:40:58;;;;;;;62.92;38.53;;;;;;;-0.06;100.00;160559.13;5066245;28;20040;-59
2023/12/03 00:43:24;;;;;;;65.15;42.00;;;;;;;-0.03;100.00;160565.81;5053080;28;20036;-58
2023/12/03 00:45:51;;;;;;;66.85;39.92;;;;;;;-0.08;100.00;160552.41;5051751;28;20033;-58
2023/12/03 00:48:17;;;;;;;70.53;42.97;;;;;;;-0.07;100.00;160555.06;5052502;28;20024;-59
2023/12/03 00:50:42;;;;;;;78.22;43.30;;;;;;;0.07;100.00;160591.25;5051645;28;20099;-58
2023/12/03 00:53:07;;;;;;;61.75;41.83;;;;;;;0.07;100.00;160592.63;5053123;28;20025;-59
2023/12/03 00:55:33;;;;;;;72.78;41.20;;;;;;;-0.06;100.00;160557.75;5067786;28;20041;-58
2023/12/03 00:57:58;;;;;;;70.55;41.58;;;;;;;0.06;100.00;160589.94;5072875;28;20056;-58
2023/12/03 01:00:24;;;;;;;65.90;42.60;;;;;;;0.03;100.00;160580.56;5071268;28;20102;-58
2023/12/03 01:02:49;;;;;;;71.18;40.38;;;;;;;0.08;100.00;160593.94;5060523;28;20037;-59
2023/12/03 01:05:14;;;;;;;60.80;40.25;;;;;;;0.08;100.00;160593.94;5051148;28;20041;-59
2023/12/03 01:07:40;;;;;;;72.90;42.72;;;;;;;0.04;100.00;160584.56;5052566;28;20021;-59
2023/12/03 01:10:06;;;;;;;69.63;45.38;;;;;;;0.09;100.00;160596.63;5051040;28;20087;-58
2023/12/03 01:12:31;;;;;;;71.55;41.45;;;;;;;0.07;100.00;160592.63;5052573;28;20074;-59
2023/12/03 01:14:56;;;;;;;63.58;40.83;;;;;;;0.12;100.00;160604.66;5051016;28;20045;-59
2023/12/03 01:17:22;;;;;;;67.50;39.17;;;;;;;0.08;100.00;160593.94;5052092;28;20476;-58
2023/12/03 01:19:47;;;;;;;73.80;40.30;;;;;;;0.09;100.00;160596.63;5055518;28;20040;-58
2023/12/03 01:22:12;;;;;;;66.45;40.15;;;;;;;0.10;100.00;160599.31;5072239;28;20039;-58
2023/12/03 01:24:38;;;;;;;70.45;40.45;;;;;;;0.11;100.00;160602.00;5070723;28;20495;-58
2023/12/03 01:27:04;;;;;;;64.40;43.25;;;;;;;0.06;100.00;160588.56;5072284;28;20050;-58
2023/12/03 01:29:30;;;;;;;81.85;43.55;;;;;;;-0.04;100.00;160564.44;5070994;28;20037;-59
2023/12/03 01:31:55;;;;;;;67.15;37.78;;;;;;;0.08;100.00;160595.25;5059661;28;20283;-59
2023/12/03 01:34:20;;;;;;;70.88;43.25;;;;;;;0.04;100.00;160583.25;5050613;28;21006;-59
2023/12/03 01:36:46;;;;;;;77.18;44.22;;;;;;;0.09;100.00;160597.94;5052175;28;20097;-59
2023/12/03 01:39:12;;;;;;;82.60;46.72;;;;;;;0.11;100.00;160603.31;5050280;28;20025;-59
2023/12/03 01:41:38;;;;;;;82.97;48.30;;;;;;;0.14;100.00;160610.00;5052113;28;20021;-59
2023/12/03 01:44:03;;;;;;;79.68;45.80;;;;;;;0.11;100.00;160603.31;5050763;28;20040;-58
2023/12/03 01:46:29;;;;;;;82.00;48.58;;;;;;;0.14;100.00;160610.00;5051851;28;20020;-59
2023/12/03 01:48:55;;;;;;;75.90;43.80;;;;;;;0.08;100.00;160593.94;5052026;28;20021;-59
2023/12/03 01:51:20;;;;;;;79.90;48.05;;;;;;;0.05;100.00;160585.88;5050389;28;20039;-59
2023/12/03 01:53:48;;;;;;;65.90;38.92;;;;;;;0.07;100.00;160591.25;5065692;28;20029;-58
2023/12/03 01:56:14;;;;;;;73.50;42.47;;;;;;;0.03;100.00;160580.56;5070005;28;20161;-59
2023/12/03 01:58:40;;;;;;;73.85;45.22;;;;;;;0.06;100.00;160588.56;5064187;28;20028;-59
2023/12/03 02:01:06;;;;;;;77.65;40.85;;;;;;;0.06;100.00;160589.94;5050453;28;20497;-59
2023/12/03 02:03:31;;;;;;;76.95;45.22;;;;;;;0.05;100.00;160585.88;5049801;28;20055;-59
2023/12/03 02:06:08;;;;;;;71.57;44.38;;;;;;;0.07;100.00;160591.25;5050365;28;20049;-58
2023/12/03 02:08:34;;;;;;;72.22;42.40;;;;;;;-0.01;100.00;160571.19;5051537;28;20029;-59
2023/12/03 02:11:00;;;;;;;71.40;43.58;;;;;;;-0.03;100.00;160567.13;5049809;28;20044;-59
2023/12/03 02:13:32;;;;;;;72.80;46.22;;;;;;;0.03;100.00;160580.56;5052476;28;20032;-59
2023/12/03 02:15:57;;;;;;;72.55;42.55;;;;;;;-0.04;100.00;160564.44;5050216;28;20051;-59
2023/12/03 02:18:24;;;;;;;75.63;43.60;;;;;;;-0.06;100.00;160557.75;5050998;28;20013;-59
2023/12/03 02:20:50;;;;;;;74.03;43.75;;;;;;;-0.08;100.00;160553.75;5059107;28;20040;-59
2023/12/03 02:23:15;;;;;;;76.68;42.08;;;;;;;0.02;100.00;160579.19;5069795;28;20086;-59
2023/12/03 02:25:41;;;;;;;65.18;41.22;;;;;;;-0.05;100.00;160561.81;5052761;28;20093;-59
2023/12/03 02:28:07;;;;;;;81.18;44.15;;;;;;;0.09;100.00;160596.63;5050591;28;20484;-59
2023/12/03 02:30:32;;;;;;;77.15;45.92;;;;;;;0.12;100.00;160604.66;5049731;28;20135;-59
2023/12/03 02:32:58;;;;;;;72.22;43.92;;;;;;;0.11;100.00;160602.00;5050983;28;20484;-59
2023/12/03 02:35:23;;;;;;;77.32;44.03;;;;;;;0.12;100.00;160604.66;5049441;28;20045;-59
2023/12/03 02:37:49;;;;;;;77.28;45.03;;;;;;;0.13;100.00;160608.69;5066465;28;20045;-59
2023/12/03 02:40:14;;;;;;;69.65;43.60;;;;;;;0.08;100.00;160593.94;5069041;28;20041;-59
2023/12/03 02:42:39;;;;;;;73.85;44.40;;;;;;;0.10;100.00;160599.31;5071278;28;20379;-59
2023/12/03 02:45:05;;;;;;;78.25;45.20;;;;;;;-0.07;100.00;160556.44;5069240;28;20404;-59
2023/12/03 02:47:31;;;;;;;76.70;43.88;;;;;;;-0.03;100.00;160567.13;5069127;28;20063;-59
2023/12/03 02:49:56;;;;;;;72.47;42.85;;;;;;;0.01;100.00;160575.19;5049706;28;20057;-59
2023/12/03 02:52:21;;;;;;;90.28;43.67;;;;;;;0.07;100.00;160592.63;5050576;28;20446;-59
2023/12/03 02:54:47;;;;;;;86.95;45.08;;;;;;;0.03;100.00;160581.88;5048990;28;20040;-59
2023/12/03 02:57:12;;;;;;;72.63;41.72;;;;;;;0.08;100.00;160593.94;5050635;28;20491;-59
2023/12/03 02:59:37;;;;;;;80.57;45.55;;;;;;;0.09;100.00;160596.63;5049291;28;20056;-59
2023/12/03 03:02:03;;;;;;;78.22;39.67;;;;;;;0.07;100.00;160592.63;5050478;28;20025;-59
2023/12/03 03:04:28;;;;;;;74.38;44.70;;;;;;;0.03;100.00;160580.56;5049185;28;20587;-59
2023/12/03 03:06:54;;;;;;;87.72;44.20;;;;;;;0.11;100.00;160602.00;5049894;28;20067;-59
2023/12/03 03:09:19;;;;;;;74.30;44.20;;;;;;;0.06;100.00;160588.56;5048822;28;20166;-59
2023/12/03 03:11:44;;;;;;;80.05;40.65;;;;;;;0.01;100.00;160576.50;5050678;28;20021;-59
2023/12/03 03:14:10;;;;;;;74.50;38.45;;;;;;;0.09;100.00;160596.63;5048672;28;20098;-59
2023/12/03 03:16:35;;;;;;;79.32;42.22;;;;;;;0.14;100.00;160611.38;5062309;28;20029;-59
2023/12/03 03:19:01;;;;;;;84.95;43.17;;;;;;;0.06;100.00;160588.56;5069584;28;20421;-58
2023/12/03 03:21:26;;;;;;;87.20;46.13;;;;;;;0.06;100.00;160588.56;5069609;28;20021;-59
2023/12/03 03:23:51;;;;;;;78.72;42.97;;;;;;;0.08;100.00;160593.94;5050040;28;20611;-59
2023/12/03 03:26:17;;;;;;;86.47;42.08;;;;;;;0.00;100.00;160573.88;5048608;28;20060;-59
2023/12/03 03:28:42;;;;;;;89.75;43.80;;;;;;;-0.03;100.00;160567.13;5050173;28;20388;-59
2023/12/03 03:31:08;;;;;;;80.43;42.45;;;;;;;0.05;100.00;160585.88;5048955;28;20049;-59
2023/12/03 03:33:33;;;;;;;90.63;41.78;;;;;;;0.02;100.00;160579.19;5050073;28;20452;-59
2023/12/03 03:35:58;;;;;;;86.03;44.10;;;;;;;0.07;100.00;160591.25;5048908;28;20041;-58
2023/12/03 03:38:24;;;;;;;81.18;40.63;;;;;;;0.07;100.00;160591.25;5049996;28;20025;-58
2023/12/03 03:40:50;;;;;;;89.40;41.13;;;;;;;0.05;100.00;160585.88;5049032;28;20071;-59
2023/12/03 03:43:15;;;;;;;84.88;41.22;;;;;;;0.09;100.00;160596.63;5053619;28;20029;-59
2023/12/03 03:45:41;;;;;;;101.20;44.45;;;;;;;0.09;100.00;160596.63;5068732;28;20476;-59
2023/12/03 03:48:06;;;;;;;98.60;43.33;;;;;;;0.18;100.00;160620.78;5070081;28;20371;-59
2023/12/03 03:50:31;;;;;;;109.47;47.05;;;;;;;0.17;100.00;160616.72;5068792;28;20098;-59
2023/12/03 03:52:57;;;;;;;100.28;49.47;;;;;;;0.19;100.00;160623.41;5056661;28;20025;-59
2023/12/03 03:55:22;;;;;;;99.13;50.38;;;;;;;0.14;100.00;160610.00;5048536;28;20037;-59
2023/12/03 03:57:48;;;;;;;103.47;42.80;;;;;;;0.21;100.00;160628.78;5050111;28;20052;-58
2023/12/03 04:00:14;;;;;;;104.25;44.60;;;;;;;0.21;100.00;160628.78;5048268;28;20044;-59
2023/12/03 04:02:39;;;;;;;113.00;46.35;;;;;;;0.16;100.00;160615.41;5050171;28;20031;-58
2023/12/03 04:05:05;;;;;;;112.65;44.38;;;;;;;0.16;100.00;160615.41;5048700;28;20041;-58
2023/12/03 04:07:31;;;;;;;92.43;37.08;;;;;;;0.17;100.00;160618.09;5062646;28;20426;-59
2023/12/03 04:09:56;;;;;;;113.57;46.13;;;;;;;0.17;100.00;160618.09;5068739;28;20049;-59
2023/12/03 04:12:21;;;;;;;100.72;43.15;;;;;;;0.04;100.00;160583.25;5053959;28;20033;-59
2023/12/03 04:14:47;;;;;;;106.05;46.33;;;;;;;0.22;100.00;160631.47;5048410;28;20416;-59
2023/12/03 04:17:12;;;;;;;100.90;45.03;;;;;;;0.27;100.00;160644.84;5051546;28;20020;-59
2023/12/03 04:19:38;;;;;;;109.90;44.38;;;;;;;0.11;100.00;160602.00;5052049;28;20044;-58
2023/12/03 04:22:03;;;;;;;86.35;38.88;;;;;;;0.25;100.00;160638.16;5053377;28;20035;-59
2023/12/03 04:24:28;;;;;;;98.65;39.55;;;;;;;0.28;100.00;160646.22;5052125;28;20068;-59
2023/12/03 04:26:54;;;;;;;98.97;42.05;;;;;;;0.21;100.00;160628.78;5053499;28;20013;-58
2023/12/03 04:29:19;;;;;;;103.05;45.45;;;;;;;0.22;100.00;160631.47;5051486;28;20519;-59
2023/12/03 04:31:46;;;;;;;102.10;40.65;;;;;;;0.29;100.00;160648.91;5053997;28;20021;-59
2023/12/03 04:34:12;;;;;;;103.22;43.22;;;;;;;0.29;100.00;160648.91;5051784;28;20036;-59
2023/12/03 04:36:37;;;;;;;91.88;44.35;;;;;;;0.27;100.00;160644.84;5053478;28;20118;-59
2023/12/03 04:39:04;;;;;;;97.50;40.30;;;;;;;0.28;100.00;160647.53;5058528;28;20033;-59
2023/12/03 04:41:34;;;;;;;96.53;40.67;;;;;;;0.39;100.00;160675.69;5072456;28;20025;-59
2023/12/03 04:44:00;;;;;;;104.95;41.55;;;;;;;0.38;100.00;160671.69;5051913;28;20032;-58
2023/12/03 04:46:25;;;;;;;92.50;39.78;;;;;;;0.39;100.00;160675.69;5052722;28;20372;-59
2023/12/03 04:48:51;;;;;;;92.00;39.28;;;;;;;0.40;100.00;160677.06;5052807;28;20032;-59
2023/12/03 04:51:16;;;;;;;91.80;44.08;;;;;;;0.44;100.00;160687.75;5051533;28;20052;-58
2023/12/03 04:53:42;;;;;;;98.43;39.58;;;;;;;0.43;100.00;160686.44;5059045;28;20475;-59
2023/12/03 04:56:08;;;;;;;105.50;40.63;;;;;;;0.50;100.00;160703.84;5071552;28;20377;-59
2023/12/03 04:58:34;;;;;;;115.50;44.58;;;;;;;0.49;100.00;160701.16;5071524;28;20026;-59
2023/12/03 05:00:59;;;;;;;98.55;39.33;;;;;;;0.52;100.00;160707.91;5071356;28;20140;-59
2023/12/03 05:03:24;;;;;;;107.65;41.58;;;;;;;0.54;100.00;160713.22;5055076;28;20463;-59
2023/12/03 05:05:51;;;;;;;104.60;47.63;;;;;;;0.58;100.00;160725.28;5051491;28;20044;-59
2023/12/03 05:08:17;;;;;;;109.88;48.05;;;;;;;0.57;100.00;160722.59;5071566;28;20028;-59
2023/12/03 05:10:42;;;;;;;123.53;46.53;;;;;;;0.60;100.00;160729.31;5071346;28;20036;-59
2023/12/03 05:13:07;;;;;;;121.90;44.42;;;;;;;0.62;100.00;160736.06;5062710;28;20031;-59
2023/12/03 05:15:33;;;;;;;124.72;46.33;;;;;;;0.58;100.00;160725.28;5050725;28;20041;-59
2023/12/03 05:17:58;;;;;;;144.27;45.63;;;;;;;0.62;100.00;160736.06;5052732;28;20433;-59
2023/12/03 05:20:24;;;;;;;118.63;45.47;;;;;;;0.66;100.00;160744.06;5051064;28;20044;-59
2023/12/03 05:22:51;;;;;;;139.98;50.50;;;;;;;0.67;100.00;160746.75;5052398;28;20058;-59
2023/12/03 05:25:17;;;;;;;121.70;47.22;;;;;;;0.74;100.00;160765.53;5051047;28;20045;-59
2023/12/03 05:27:42;;;;;;;133.90;49.03;;;;;;;0.74;100.00;160765.53;5052084;28;20387;-58
2023/12/03 05:30:08;;;;;;;133.57;51.05;;;;;;;0.76;100.00;160770.91;5049671;28;20044;-58
2023/12/03 05:32:33;;;;;;;128.07;49.38;;;;;;;0.74;100.00;160765.53;5049850;28;20021;-58
2023/12/03 05:34:59;;;;;;;114.95;46.13;;;;;;;0.74;100.00;160765.53;5044097;28;20523;-58
2023/12/03 05:37:28;;;;;;;118.05;52.90;;;;;;;0.74;100.00;160765.53;5054636;28;20037;-58
2023/12/03 05:39:54;;;;;;;109.78;52.15;;;;;;;0.78;100.00;160776.28;5050875;28;20502;-58
2023/12/03 05:42:20;;;;;;;117.07;49.95;;;;;;;0.81;100.00;160782.97;5051970;28;20158;-58
2023/12/03 05:44:46;;;;;;;109.50;52.20;;;;;;;0.81;100.00;160782.97;5046355;28;20045;-58
2023/12/03 05:47:12;;;;;;;129.80;54.70;;;;;;;0.80;100.00;160781.59;5051253;28;20028;-58
2023/12/03 05:49:40;;;;;;;104.28;46.17;;;;;;;0.81;100.00;160784.28;5050429;28;20037;-60
2023/12/03 05:52:06;;;;;;;110.10;50.63;;;;;;;0.82;100.00;160786.97;5047667;28;20126;-60
2023/12/03 05:54:31;;;;;;;102.45;48.25;;;;;;;0.85;100.00;160795.03;5046886;28;20529;-59
2023/12/03 05:56:57;;;;;;;102.72;50.35;;;;;;;0.80;100.00;160781.59;5051375;28;20017;-60
2023/12/03 05:59:22;;;;;;;103.97;50.28;;;;;;;0.89;100.00;160805.75;5048332;28;20562;-59
2023/12/03 06:01:48;;;;;;;93.80;45.47;;;;;;;0.92;100.00;160813.81;5041867;28;20051;-59
2023/12/03 06:04:14;;;;;;;94.70;50.13;;;;;;;0.83;100.00;160789.66;5069581;28;20377;-59
2023/12/03 06:06:39;;;;;;;91.97;45.13;;;;;;;0.93;100.00;160816.47;5060344;28;20084;-59
2023/12/03 06:09:05;;;;;;;83.47;45.28;;;;;;;0.88;100.00;160803.06;5067690;28;20032;-59
2023/12/03 06:11:35;;;;;;;95.88;48.88;;;;;;;0.90;100.00;160807.06;5050694;28;20021;-59
2023/12/03 06:14:01;;;;;;;100.57;50.17;;;;;;;0.92;100.00;160813.81;5048194;28;20036;-59
2023/12/03 06:16:27;;;;;;;86.50;45.45;;;;;;;0.98;100.00;160827.22;5050897;28;20033;-59
2023/12/03 06:18:52;;;;;;;83.05;46.20;;;;;;;1.01;100.00;160835.22;5050150;28;20021;-59
2023/12/03 06:21:17;;;;;;;86.70;50.53;;;;;;;1.04;100.00;160843.28;5047186;28;20068;-59
2023/12/03 06:23:43;;;;;;;95.63;49.60;;;;;;;1.07;100.00;160851.38;5050764;28;20032;-59
2023/12/03 06:26:08;;;;;;;90.97;52.33;;;;;;;1.06;100.00;160848.69;5049232;28;20037;-59
2023/12/03 06:28:34;;;;;;;95.53;50.85;;;;;;;1.08;100.00;160854.06;5033259;28;20036;-59
2023/12/03 06:31:00;;;;;;;89.35;48.45;;;;;;;1.05;100.00;160845.97;5062675;28;20044;-59
2023/12/03 06:33:25;;;;;;;78.22;46.47;;;;;;;1.13;100.00;160867.44;5069912;28;20075;-59
2023/12/03 06:35:51;;;;;;;77.72;49.05;;;;;;;1.11;100.00;160862.06;5057884;28;20040;-59
2023/12/03 06:38:16;;;;;;;86.43;48.50;;;;;;;1.09;100.00;160856.69;5060342;28;20429;-59
2023/12/03 06:40:42;;;;;;;74.93;46.80;;;;;;;1.04;100.00;160843.28;5059909;28;20416;-59
2023/12/03 06:43:07;;;;;;;80.60;48.15;;;;;;;1.09;100.00;160856.69;5049503;28;20515;-59
2023/12/03 06:45:33;;;;;;;87.40;48.95;;;;;;;1.07;100.00;160851.38;5047838;28;20091;-59
2023/12/03 06:47:59;;;;;;;85.78;49.45;;;;;;;1.04;100.00;160843.28;5050088;28;20032;-59
2023/12/03 06:50:24;;;;;;;78.00;47.08;;;;;;;0.99;100.00;160831.22;5048435;28;20056;-60
2023/12/03 06:52:49;;;;;;;67.95;46.00;;;;;;;0.95;100.00;160821.84;5049278;28;20529;-59
2023/12/03 06:55:15;;;;;;;76.35;50.25;;;;;;;0.87;100.00;160800.38;5048192;28;20036;-60
2023/12/03 06:57:40;;;;;;;68.50;46.05;;;;;;;0.83;100.00;160789.66;5049953;28;20048;-59
2023/12/03 07:00:06;;;;;;;82.90;46.17;;;;;;;0.76;100.00;160770.91;5047820;28;20047;-60
2023/12/03 07:02:32;;;;;;;74.00;44.95;;;;;;;0.74;100.00;160765.53;5050127;28;20083;-60
2023/12/03 07:04:57;;;;;;;76.70;49.10;;;;;;;0.67;100.00;160746.75;5048349;28;20045;-60
2023/12/03 07:07:23;;;;;;;73.70;46.42;;;;;;;0.69;100.00;160752.13;5048687;28;20036;-60
2023/12/03 07:09:48;;;;;;;80.20;47.13;;;;;;;0.65;100.00;160741.38;5051828;28;20393;-59
2023/12/03 07:12:13;;;;;;;85.82;49.17;;;;;;;0.66;100.00;160744.06;5049401;28;20028;-59
2023/12/03 07:14:39;;;;;;;88.22;49.55;;;;;;;0.67;100.00;160748.06;5047538;28;20048;-59
2023/12/03 07:17:04;;;;;;;91.25;55.30;;;;;;;0.65;100.00;160742.75;5049857;28;20025;-60
2023/12/03 07:19:30;;;;;;;75.32;48.38;;;;;;;0.69;100.00;160753.44;5047996;28;20061;-60
2023/12/03 07:21:55;;;;;;;81.38;48.95;;;;;;;0.65;100.00;160741.38;5048563;28;20032;-61
2023/12/03 07:24:21;;;;;;;80.68;45.95;;;;;;;0.62;100.00;160736.06;5048321;28;20041;-60
2023/12/03 07:26:46;;;;;;;71.47;49.63;;;;;;;0.62;100.00;160736.06;5049589;28;20043;-61
2023/12/03 07:29:12;;;;;;;77.32;52.13;;;;;;;0.63;100.00;160737.38;5046237;28;20033;-57
2023/12/03 07:31:37;;;;;;;73.57;48.90;;;;;;;0.60;100.00;160730.66;5049662;28;20385;-59
2023/12/03 07:34:03;;;;;;;76.07;43.72;;;;;;;0.58;100.00;160725.28;5048440;28;20529;-58
2023/12/03 07:36:28;;;;;;;78.90;43.42;;;;;;;0.60;100.00;160729.31;5048816;28;20047;-58
2023/12/03 07:38:53;;;;;;;75.10;46.75;;;;;;;0.57;100.00;160722.59;5052804;28;20032;-58
2023/12/03 07:41:19;;;;;;;74.43;48.42;;;;;;;0.60;100.00;160730.66;5047612;28;20041;-58
2023/12/03 07:43:44;;;;;;;80.22;50.15;;;;;;;0.58;100.00;160725.28;5047102;28;20164;-58
2023/12/03 07:46:16;;;;;;;81.63;49.90;;;;;;;0.59;100.00;160727.97;5047076;28;20037;-58
2023/12/03 07:48:41;;;;;;;71.13;51.63;;;;;;;0.59;100.00;160726.66;5048312;28;20025;-57
2023/12/03 07:51:10;;;;;;;77.72;48.75;;;;;;;0.59;100.00;160727.97;5045512;28;20041;-58
2023/12/03 07:53:35;;;;;;;;;;;;;;;0.59;100.00;160727.97;5053032;28;20029;-58
2023/12/03 07:56:01;;;;;;;72.80;41.67;;;;;;;0.58;100.00;160725.28;5051801;28;19930;-58
2023/12/03 07:58:26;;;;;;;68.55;43.00;;;;;;;0.61;100.00;160733.34;5051593;28;20127;-58
2023/12/03 08:00:52;;;;;;;73.40;46.00;;;;;;;0.57;100.00;160721.28;5051228;28;20052;-58
2023/12/03 08:03:17;;;;;;;69.45;44.97;;;;;;;0.65;100.00;160741.38;5052370;28;21642;-58
2023/12/03 08:05:42;;;;;;;72.32;46.03;;;;;;;0.66;100.00;160744.06;5050385;28;20098;-57
2023/12/03 08:08:08;;;;;;;65.25;40.58;;;;;;;0.62;100.00;160734.69;5053137;28;20476;-57
2023/12/03 08:10:33;;;;;;;77.20;44.35;;;;;;;0.59;100.00;160727.97;5053318;28;20111;-57
2023/12/03 08:12:59;;;;;;;74.82;46.25;;;;;;;0.59;100.00;160727.97;5051995;28;20128;-58
2023/12/03 08:15:24;;;;;;;75.72;45.42;;;;;;;0.59;100.00;160727.97;5051668;28;20052;-57
2023/12/03 08:17:49;;;;;;;82.13;45.28;;;;;;;0.58;100.00;160725.28;5053352;28;20438;-58
2023/12/03 08:20:15;;;;;;;70.97;43.05;;;;;;;0.65;100.00;160741.38;5050377;28;20049;-58
2023/12/03 08:22:40;;;;;;;70.47;42.30;;;;;;;0.65;100.00;160742.75;5055541;28;20059;-58
2023/12/03 08:25:07;;;;;;;68.40;41.78;;;;;;;0.67;100.00;160746.75;5051490;28;20053;-58
2023/12/03 08:27:32;;;;;;;70.53;43.45;;;;;;;0.68;100.00;160749.44;5051221;28;20484;-57
2023/12/03 08:29:58;;;;;;;68.43;41.65;;;;;;;0.68;100.00;160750.75;5049470;28;20056;-58
2023/12/03 08:32:23;;;;;;;66.57;41.80;;;;;;;0.71;100.00;160758.81;5051642;28;20021;-57
2023/12/03 08:34:48;;;;;;;67.82;39.00;;;;;;;0.67;100.00;160748.06;5049428;28;20052;-57
2023/12/03 08:37:14;;;;;;;72.97;42.90;;;;;;;0.75;100.00;160768.22;5050925;28;20115;-57
2023/12/03 08:39:41;;;;;;;63.25;39.45;;;;;;;0.75;100.00;160769.53;5051401;28;20142;-57
2023/12/03 08:42:07;;;;;;;63.35;40.50;;;;;;;0.78;100.00;160777.59;5051604;28;20028;-57
2023/12/03 08:44:32;;;;;;;57.92;37.20;;;;;;;0.79;100.00;160778.91;5051054;28;20041;-58
2023/12/03 08:46:58;;;;;;;64.90;38.22;;;;;;;0.66;100.00;160744.06;5052374;28;20036;-58
2023/12/03 08:49:24;;;;;;;65.45;39.50;;;;;;;0.61;100.00;160733.34;5049782;28;20125;-58
2023/12/03 08:51:50;;;;;;;60.30;39.42;;;;;;;0.50;100.00;160703.84;5052647;28;20029;-57
2023/12/03 08:54:15;;;;;;;63.28;38.72;;;;;;;0.44;100.00;160689.13;5050741;28;20025;-57
2023/12/03 08:56:43;;;;;;;71.82;37.55;;;;;;;0.65;100.00;160742.75;5036751;28;20026;-57
2023/12/03 08:59:08;;;;;;;58.83;39.70;;;;;;;0.83;100.00;160788.28;5032091;28;20424;-57
2023/12/03 09:01:34;;;;;;;60.15;40.65;;;;;;;0.99;100.00;160829.91;5052063;28;20079;-57
2023/12/03 09:03:59;;;;;;;60.05;38.75;;;;;;;1.12;100.00;160864.75;5049722;28;20036;-57
2023/12/03 09:06:24;;;;;;;57.92;37.42;;;;;;;1.25;100.00;160899.63;5051851;28;20037;-57
2023/12/03 09:08:50;;;;;;;57.70;35.97;;;;;;;1.31;100.00;160913.03;5051839;28;20035;-57
2023/12/03 09:11:15;;;;;;;55.97;37.35;;;;;;;1.77;100.00;161032.44;5050319;28;20052;-58
2023/12/03 09:13:41;;;;;;;51.10;33.08;;;;;;;1.98;100.00;161087.44;5048000;28;20361;-57
2023/12/03 09:16:06;;;;;;;52.95;34.70;;;;;;;2.12;100.00;161123.69;5049063;28;20538;-57
2023/12/03 09:18:38;;;;;;;52.40;33.70;;;;;;;2.24;100.00;161154.56;5050823;28;20061;-57
2023/12/03 09:21:05;;;;;;;48.10;32.55;;;;;;;2.06;100.00;161108.91;5051154;28;20068;-57
2023/12/03 09:23:30;;;;;;;51.42;34.20;;;;;;;2.09;100.00;161117.00;5051983;28;20032;-57
2023/12/03 09:25:56;;;;;;;50.28;31.83;;;;;;;2.17;100.00;161138.47;5049588;28;20044;-57
2023/12/03 09:28:21;;;;;;;48.85;31.13;;;;;;;2.25;100.00;161157.25;5049245;28;20385;-57
2023/12/03 09:30:46;;;;;;;50.50;32.65;;;;;;;2.22;100.00;161151.88;5049327;28;20053;-57
2023/12/03 09:33:12;;;;;;;50.65;35.10;;;;;;;2.13;100.00;161126.38;5050999;28;20029;-57
2023/12/03 09:35:37;;;;;;;43.47;29.23;;;;;;;2.07;100.00;161111.59;5049844;28;20041;-57
2023/12/03 09:38:02;;;;;;;55.55;34.13;;;;;;;2.15;100.00;161133.09;5050899;28;20075;-58
2023/12/03 09:40:28;;;;;;;46.20;32.70;;;;;;;2.24;100.00;161154.56;5049351;28;20044;-57
2023/12/03 09:42:56;;;;;;;59.30;33.00;;;;;;;2.34;100.00;161181.44;5050891;28;20606;-57
2023/12/03 09:45:26;;;;;;;51.65;31.73;;;;;;;2.51;100.00;161227.03;5049377;28;20496;-57
2023/12/03 09:47:59;;;;;;;46.70;27.27;;;;;;;2.62;100.00;161253.91;5049744;28;20017;-57
2023/12/03 09:50:26;;;;;;;52.10;34.05;;;;;;;2.89;100.00;161325.09;5046026;28;20114;-57
2023/12/03 09:52:55;;;;;;;50.70;30.52;;;;;;;3.05;100.00;161366.72;5049907;28;20862;-58
2023/12/03 09:55:26;;;;;;;40.50;25.63;;;;;;;3.14;100.00;161390.88;5048628;28;20064;-57
2023/12/03 09:57:58;;;;;;;40.60;30.20;;;;;;;3.40;100.00;161458.03;5050547;28;20605;-57
2023/12/03 10:00:23;;;;;;;39.15;27.48;;;;;;;3.53;100.00;161490.31;5048621;28;20041;-57
2023/12/03 10:02:53;;;;;;;47.97;32.75;;;;;;;3.51;100.00;161484.91;5049656;28;20438;-57
2023/12/03 10:05:18;;;;;;;38.58;26.00;;;;;;;3.47;100.00;161476.84;5047331;28;20120;-57
2023/12/03 10:07:47;;;;;;;43.33;27.17;;;;;;;3.22;100.00;161409.69;5049470;28;20040;-57
2023/12/03 10:10:17;;;;;;;43.88;28.60;;;;;;;3.21;100.00;161407.00;5029501;28;20099;-58
2023/12/03 10:12:43;;;;;;;38.35;26.45;;;;;;;3.25;100.00;161417.72;5049418;28;20024;-58
2023/12/03 10:15:09;;;;;;;41.72;25.42;;;;;;;3.46;100.00;161474.13;5068929;28;20044;-57
2023/12/03 10:17:35;;;;;;;36.40;26.17;;;;;;;3.65;100.00;161522.53;5070793;28;20020;-58
2023/12/03 10:20:20;;;;;;;41.38;27.45;;;;;;;3.47;100.00;161476.84;5068523;28;20432;-57
2023/12/03 10:22:46;;;;;;;41.25;25.33;;;;;;;3.32;100.00;161437.91;5052912;28;20029;-57
2023/12/03 10:25:12;;;;;;;40.72;27.05;;;;;;;3.21;100.00;161407.00;5048931;28;20120;-57
2023/12/03 10:27:37;;;;;;;43.03;30.55;;;;;;;2.95;100.00;161339.81;5049911;28;20032;-58
2023/12/03 10:30:02;;;;;;;42.25;25.90;;;;;;;2.85;100.00;161315.69;5049423;28;20118;-58
2023/12/03 10:32:28;;;;;;;36.80;26.50;;;;;;;2.82;100.00;161307.59;5048472;28;20060;-57
2023/12/03 10:34:54;;;;;;;41.97;28.42;;;;;;;2.79;100.00;161299.53;5047950;28;20037;-58
2023/12/03 10:37:19;;;;;;;40.95;23.80;;;;;;;2.83;100.00;161310.31;5051246;28;20036;-58
2023/12/03 10:39:46;;;;;;;45.47;28.75;;;;;;;2.77;100.00;161294.19;5048139;28;20499;-57
2023/12/03 10:42:11;;;;;;;40.67;24.75;;;;;;;2.52;100.00;161229.75;5049679;28;20365;-57
2023/12/03 10:44:39;;;;;;;36.65;25.05;;;;;;;2.35;100.00;161185.44;5048238;28;20051;-57
2023/12/03 10:47:05;;;;;;;39.67;25.73;;;;;;;2.18;100.00;161141.16;5049064;28;20063;-58
2023/12/03 10:49:31;;;;;;;38.03;26.50;;;;;;;1.93;100.00;161074.03;5044544;28;20048;-59
2023/12/03 10:51:58;;;;;;;40.88;26.58;;;;;;;1.87;100.00;161060.63;5034116;28;20565;-59
2023/12/03 10:54:24;;;;;;;44.20;26.30;;;;;;;1.73;100.00;161023.06;5050400;28;20503;-59
2023/12/03 10:56:54;;;;;;;40.38;28.17;;;;;;;1.82;100.00;161047.22;5070479;28;20036;-59
2023/12/03 10:59:22;;;;;;;34.90;27.17;;;;;;;1.87;100.00;161060.63;5051968;28;20021;-59
2023/12/03 11:01:54;;;;;;;40.05;28.77;;;;;;;1.88;100.00;161063.31;5054044;28;20029;-59